Time;durP1;ratioP1;P1;durP2;ratioP2;P2;SDS_P1;SDS_P2;PMS_P1;PMS_P2;Temp;Humidity;BMP_temperature;BMP_pressure;BME280_temperature;BME280_humidity;BME280_pressure;Samples;Min_cycle;Max_cycle;Signal;HPM_P1;HPM_P2
2022/09/18 00:00:47;;;;;;;0.00;0.00;;;13.00;72.30;;;;;;5027290;28;20389;-75
2022/09/18 00:03:14;;;;;;;0.00;0.00;;;13.00;72.30;;;;;;5025608;28;20128;-76
2022/09/18 00:05:42;;;;;;;0.00;0.00;;;13.00;72.40;;;;;;5025809;28;20088;-76
2022/09/18 00:08:08;;;;;;;0.00;0.00;;;13.00;73.00;;;;;;5027069;28;20028;-76
2022/09/18 00:10:44;;;;;;;0.00;0.00;;;13.00;72.50;;;;;;5027051;28;20029;-76
2022/09/18 00:13:10;;;;;;;0.00;0.00;;;13.00;72.50;;;;;;5026900;28;20037;-76
2022/09/18 00:15:36;;;;;;;0.00;0.00;;;13.10;72.50;;;;;;5026587;28;20054;-76
2022/09/18 00:18:03;;;;;;;0.00;0.00;;;13.10;72.50;;;;;;5009119;28;20455;-76
2022/09/18 00:20:29;;;;;;;0.00;0.00;;;13.10;72.40;;;;;;5009570;28;20029;-76
2022/09/18 00:22:54;;;;;;;0.00;0.00;;;13.00;72.40;;;;;;5012288;28;20536;-76
2022/09/18 00:25:20;;;;;;;0.00;0.00;;;13.00;72.60;;;;;;5029488;28;20037;-76
2022/09/18 00:27:46;;;;;;;0.00;0.00;;;13.00;72.70;;;;;;5029594;28;20038;-76
2022/09/18 00:30:12;;;;;;;0.00;0.00;;;13.00;72.50;;;;;;5030692;28;20068;-76
2022/09/18 00:32:38;;;;;;;0.00;0.00;;;13.00;72.50;;;;;;5029158;28;20065;-76
2022/09/18 00:35:04;;;;;;;0.00;0.00;;;12.90;72.50;;;;;;5030494;28;20393;-76
2022/09/18 00:37:29;;;;;;;0.00;0.00;;;12.90;72.60;;;;;;5030278;28;20104;-76
2022/09/18 00:39:55;;;;;;;0.00;0.00;;;12.90;72.60;;;;;;5030519;28;20482;-76
2022/09/18 00:42:21;;;;;;;0.00;0.00;;;12.90;72.60;;;;;;5012719;28;20030;-76
2022/09/18 00:44:48;;;;;;;0.00;0.00;;;12.90;72.50;;;;;;5029633;28;20042;-76
2022/09/18 00:47:50;;;;;;;0.00;0.00;;;12.90;72.50;;;;;;5028948;28;20021;-76
2022/09/18 00:50:25;;;;;;;0.03;0.00;;;13.00;72.50;;;;;;5027708;28;20229;-76
2022/09/18 00:52:57;;;;;;;0.30;0.30;;;12.90;72.40;;;;;;5028729;28;20029;-75
2022/09/18 00:55:32;;;;;;;0.00;0.00;;;12.90;72.40;;;;;;5030091;28;20026;-76
2022/09/18 00:58:01;;;;;;;0.00;0.00;;;12.90;72.30;;;;;;5030036;28;20378;-76
2022/09/18 01:00:28;;;;;;;0.00;0.00;;;12.90;72.20;;;;;;5030179;28;20097;-75
2022/09/18 01:02:54;;;;;;;0.00;0.00;;;12.90;72.20;;;;;;5030299;28;20028;-76
2022/09/18 01:05:55;;;;;;;0.00;0.00;;;12.90;72.30;;;;;;5030153;28;20109;-76
2022/09/18 01:08:35;;;;;;;0.00;0.00;;;12.90;72.40;;;;;;5014270;28;20041;-76
2022/09/18 01:11:30;;;;;;;0.00;0.00;;;12.90;72.30;;;;;;5029981;28;20024;-76
2022/09/18 01:14:10;;;;;;;0.00;0.00;;;12.90;72.30;;;;;;5030085;28;20021;-76
2022/09/18 01:16:42;;;;;;;0.00;0.00;;;12.90;72.30;;;;;;5029830;28;20492;-76
2022/09/18 01:19:42;;;;;;;0.00;0.00;;;12.90;72.20;;;;;;5029789;28;20037;-77
2022/09/18 01:22:32;;;;;;;0.00;0.00;;;13.00;72.20;;;;;;5029739;28;20109;-76
2022/09/18 01:25:26;;;;;;;0.00;0.00;;;12.90;72.10;;;;;;5029785;28;20516;-77
2022/09/18 01:28:22;;;;;;;0.00;0.00;;;12.90;72.00;;;;;;5027647;28;20045;-77
2022/09/18 01:30:53;;;;;;;0.00;0.00;;;12.80;72.00;;;;;;5028540;28;20021;-76
2022/09/18 01:33:29;;;;;;;0.00;0.00;;;12.80;72.00;;;;;;5028332;28;20524;-76
2022/09/18 01:35:58;;;;;;;0.00;0.00;;;12.70;72.10;;;;;;5029370;28;20023;-76
2022/09/18 01:38:24;;;;;;;0.00;0.00;;;12.70;72.30;;;;;;5029709;28;20030;-76
2022/09/18 01:40:54;;;;;;;0.00;0.00;;;12.70;72.50;;;;;;5029471;28;20076;-76
2022/09/18 01:43:23;;;;;;;0.00;0.00;;;12.70;72.40;;;;;;5029367;28;20034;-77
2022/09/18 01:45:54;;;;;;;0.00;0.00;;;12.70;72.30;;;;;;5029200;28;20037;-77
2022/09/18 01:48:32;;;;;;;0.00;0.00;;;12.70;72.20;;;;;;5027818;28;20034;-76
2022/09/18 01:51:10;;;;;;;0.00;0.00;;;12.70;72.30;;;;;;5027932;28;20118;-76
2022/09/18 01:53:44;;;;;;;0.00;0.00;;;12.70;72.30;;;;;;5029192;28;20021;-76
2022/09/18 01:56:18;;;;;;;0.00;0.00;;;12.60;72.50;;;;;;5029614;28;20025;-76
2022/09/18 01:58:45;;;;;;;0.00;0.00;;;12.70;72.60;;;;;;5029238;28;20017;-76
2022/09/18 02:01:15;;;;;;;0.00;0.00;;;12.70;72.40;;;;;;5029099;28;20028;-76
2022/09/18 02:03:47;;;;;;;0.00;0.00;;;12.70;72.30;;;;;;5029012;28;20104;-77
2022/09/18 02:06:40;;;;;;;0.00;0.00;;;12.70;72.30;;;;;;5029343;28;20056;-76
2022/09/18 02:09:09;;;;;;;0.00;0.00;;;12.70;72.30;;;;;;5028930;28;20534;-76
2022/09/18 02:11:39;;;;;;;0.00;0.00;;;12.70;72.30;;;;;;5027810;28;20021;-76
2022/09/18 02:14:17;;;;;;;0.00;0.00;;;12.70;72.30;;;;;;5027674;28;20028;-76
2022/09/18 02:16:49;;;;;;;0.00;0.00;;;12.70;72.30;;;;;;5028847;28;20100;-76
2022/09/18 02:19:41;;;;;;;0.00;0.00;;;12.70;72.40;;;;;;5028737;28;20064;-76
2022/09/18 02:22:11;;;;;;;0.00;0.00;;;12.70;72.30;;;;;;5019545;28;20037;-76
2022/09/18 02:24:39;;;;;;;0.00;0.00;;;12.80;72.90;;;;;;5028706;28;20029;-76
2022/09/18 02:27:08;;;;;;;0.00;0.00;;;12.80;72.30;;;;;;5028543;28;20033;-76
2022/09/18 02:29:35;;;;;;;0.00;0.00;;;12.80;72.30;;;;;;5027209;28;20440;-76
2022/09/18 02:32:02;;;;;;;0.00;0.00;;;12.80;72.20;;;;;;5028503;28;20032;-76
2022/09/18 02:34:29;;;;;;;0.00;0.00;;;12.70;72.10;;;;;;5028616;28;20020;-76
2022/09/18 02:37:20;;;;;;;0.00;0.00;;;12.70;72.20;;;;;;5028440;28;20491;-76
2022/09/18 02:40:29;;;;;;;0.00;0.00;;;12.70;72.30;;;;;;5028385;28;20474;-76
2022/09/18 02:43:16;;;;;;;0.00;0.00;;;12.60;72.30;;;;;;5028471;28;20029;-76
2022/09/18 02:45:53;;;;;;;0.00;0.00;;;12.60;72.30;;;;;;5028227;28;20021;-76
2022/09/18 02:48:46;;;;;;;0.00;0.00;;;12.60;72.30;;;;;;5028246;28;20030;-76
2022/09/18 02:51:39;;;;;;;0.00;0.00;;;12.60;72.30;;;;;;5028148;28;20052;-76
2022/09/18 02:54:35;;;;;;;0.00;0.00;;;12.60;72.30;;;;;;5020554;28;20033;-76
2022/09/18 02:57:29;;;;;;;0.00;0.00;;;12.60;72.30;;;;;;5026791;28;20024;-77
2022/09/18 02:59:59;;;;;;;0.00;0.00;;;12.60;72.30;;;;;;5025795;28;20049;-76
2022/09/18 03:02:25;;;;;;;0.00;0.00;;;12.60;72.30;;;;;;5028149;28;20117;-78
2022/09/18 03:04:50;;;;;;;0.00;0.00;;;12.60;72.30;;;;;;5027853;28;20049;-75
2022/09/18 03:07:17;;;;;;;0.00;0.00;;;12.50;72.20;;;;;;5026787;28;20631;-76
2022/09/18 03:09:43;;;;;;;0.00;0.00;;;12.50;72.10;;;;;;5026745;28;20088;-76
2022/09/18 03:12:09;;;;;;;;;;;12.50;72.20;;;;;;5028310;28;20037;-75
2022/09/18 03:14:34;;;;;;;0.00;0.00;;;12.50;72.20;;;;;;5026598;28;19905;-76
2022/09/18 03:17:00;;;;;;;0.00;0.00;;;12.50;72.10;;;;;;5026640;28;20025;-75
2022/09/18 03:19:26;;;;;;;;;;;12.40;72.10;;;;;;5010615;28;20132;-75
2022/09/18 03:21:52;;;;;;;0.00;0.00;;;12.40;72.20;;;;;;5009984;28;20325;-75
2022/09/18 03:24:19;;;;;;;0.00;0.00;;;12.40;72.10;;;;;;5026457;28;20039;-75
2022/09/18 03:26:45;;;;;;;0.00;0.00;;;12.40;72.20;;;;;;4993811;28;20095;-75
2022/09/18 03:29:12;;;;;;;0.00;0.00;;;12.30;72.60;;;;;;5026360;28;20029;-75
2022/09/18 03:31:38;;;;;;;0.00;0.00;;;12.30;72.20;;;;;;5027610;28;20028;-75
2022/09/18 03:34:04;;;;;;;0.00;0.00;;;12.30;72.20;;;;;;5027513;28;20385;-77
2022/09/18 03:36:30;;;;;;;;;;;12.30;72.80;;;;;;5028046;28;20521;-75
2022/09/18 03:38:56;;;;;;;0.00;0.00;;;12.30;72.30;;;;;;5026287;28;19999;-75
2022/09/18 03:41:22;;;;;;;0.00;0.00;;;12.20;72.20;;;;;;5026218;28;20044;-75
2022/09/18 03:43:48;;;;;;;0.00;0.00;;;12.30;72.30;;;;;;5026336;28;20549;-76
2022/09/18 03:46:21;;;;;;;0.00;0.00;;;12.30;72.30;;;;;;5026148;28;20108;-75
2022/09/18 03:48:47;;;;;;;0.00;0.00;;;12.30;72.30;;;;;;5027458;28;20025;-75
2022/09/18 03:51:12;;;;;;;0.00;0.00;;;12.30;72.30;;;;;;5026110;28;20050;-75
2022/09/18 03:53:38;;;;;;;0.00;0.00;;;12.30;72.20;;;;;;5026196;28;20113;-76
2022/09/18 03:56:04;;;;;;;0.00;0.00;;;12.30;72.20;;;;;;5027338;28;20033;-76
2022/09/18 03:58:30;;;;;;;0.00;0.00;;;12.30;72.20;;;;;;5030080;28;20037;-76
2022/09/18 04:00:56;;;;;;;0.00;0.00;;;12.30;72.20;;;;;;5031274;28;20032;-75
2022/09/18 04:03:21;;;;;;;0.00;0.00;;;12.30;72.20;;;;;;5031323;28;20470;-75
2022/09/18 04:05:49;;;;;;;0.00;0.00;;;12.30;72.20;;;;;;5031192;28;20041;-75
2022/09/18 04:08:15;;;;;;;0.00;0.00;;;12.20;72.10;;;;;;5031275;28;20393;-75
2022/09/18 04:10:41;;;;;;;0.00;0.00;;;12.20;72.20;;;;;;5013467;28;20238;-76
2022/09/18 04:13:07;;;;;;;0.00;0.00;;;12.20;72.20;;;;;;5029867;28;20545;-75
2022/09/18 04:15:32;;;;;;;0.00;0.00;;;12.10;72.20;;;;;;5031059;28;20033;-75
2022/09/18 04:17:58;;;;;;;0.00;0.00;;;12.10;72.20;;;;;;5030953;28;20467;-76
2022/09/18 04:20:24;;;;;;;0.00;0.00;;;12.10;72.20;;;;;;5031149;28;20033;-76
2022/09/18 04:22:49;;;;;;;0.00;0.00;;;12.10;72.60;;;;;;5031047;28;20497;-76
2022/09/18 04:25:16;;;;;;;0.00;0.00;;;12.10;72.30;;;;;;5029581;28;20389;-76
2022/09/18 04:27:41;;;;;;;;;;;12.10;72.30;;;;;;5030022;28;20393;-76
2022/09/18 04:30:09;;;;;;;0.00;0.00;;;12.10;72.20;;;;;;5030795;28;20108;-76
2022/09/18 04:32:34;;;;;;;0.00;0.00;;;12.10;72.20;;;;;;5029518;28;20083;-76
2022/09/18 04:35:00;;;;;;;0.00;0.00;;;12.10;72.10;;;;;;5029810;28;20026;-76
2022/09/18 04:37:26;;;;;;;0.00;0.00;;;12.10;72.20;;;;;;5030641;28;20539;-76
2022/09/18 04:39:52;;;;;;;0.00;0.00;;;12.10;72.20;;;;;;5029465;28;20479;-76
2022/09/18 04:42:17;;;;;;;0.00;0.00;;;12.10;72.20;;;;;;5030718;28;20033;-75
2022/09/18 04:44:43;;;;;;;0.00;0.00;;;12.10;72.20;;;;;;5029171;28;20037;-75
2022/09/18 04:47:09;;;;;;;0.00;0.00;;;12.00;72.20;;;;;;5030344;28;20029;-75
2022/09/18 04:49:35;;;;;;;0.00;0.00;;;12.10;72.20;;;;;;5012668;28;20136;-75
2022/09/18 04:52:00;;;;;;;0.00;0.00;;;12.10;72.20;;;;;;5012747;28;20030;-76
2022/09/18 04:54:26;;;;;;;0.00;0.00;;;12.00;72.20;;;;;;5029319;28;20053;-76
2022/09/18 04:56:52;;;;;;;0.00;0.00;;;12.00;72.20;;;;;;5012523;28;20030;-76
2022/09/18 04:59:18;;;;;;;0.00;0.00;;;12.00;72.30;;;;;;5029220;28;20034;-76
2022/09/18 05:01:44;;;;;;;0.00;0.00;;;12.00;72.20;;;;;;5030219;28;20049;-76
2022/09/18 05:04:10;;;;;;;0.00;0.00;;;12.00;72.20;;;;;;5030323;28;20466;-75
2022/09/18 05:06:35;;;;;;;0.00;0.00;;;12.00;72.20;;;;;;5028771;28;20056;-76
2022/09/18 05:09:01;;;;;;;0.00;0.00;;;12.10;72.30;;;;;;5012314;28;20394;-76
2022/09/18 05:11:27;;;;;;;0.00;0.00;;;12.00;72.30;;;;;;5028813;28;20128;-76
2022/09/18 05:13:55;;;;;;;0.00;0.00;;;12.10;72.30;;;;;;5012420;28;20033;-75
2022/09/18 05:16:22;;;;;;;0.00;0.00;;;12.10;72.20;;;;;;5029948;28;20037;-76
2022/09/18 05:18:49;;;;;;;0.00;0.00;;;12.10;72.20;;;;;;5030047;28;20025;-75
2022/09/18 05:21:15;;;;;;;0.00;0.00;;;12.00;72.30;;;;;;5030028;28;20029;-75
2022/09/18 05:23:41;;;;;;;0.00;0.00;;;12.00;72.10;;;;;;5028724;28;20029;-76
2022/09/18 05:26:07;;;;;;;;;;;12.00;72.00;;;;;;5028845;28;20103;-76
2022/09/18 05:28:33;;;;;;;0.00;0.00;;;11.80;71.90;;;;;;5029630;28;19982;-76
2022/09/18 05:30:59;;;;;;;0.00;0.00;;;11.70;71.90;;;;;;5028427;28;20026;-75
2022/09/18 05:33:25;;;;;;;0.00;0.00;;;11.50;71.90;;;;;;5029720;28;20040;-75
2022/09/18 05:35:55;;;;;;;0.00;0.00;;;11.40;72.00;;;;;;5028423;28;20029;-75
2022/09/18 05:38:21;;;;;;;0.00;0.00;;;11.20;72.00;;;;;;5029556;28;20033;-75
2022/09/18 05:40:50;;;;;;;;;;;11.10;72.10;;;;;;5028883;28;20040;-75
2022/09/18 05:43:17;;;;;;;0.00;0.00;;;11.00;72.20;;;;;;5029375;28;20382;-76
2022/09/18 05:45:42;;;;;;;0.00;0.00;;;11.00;72.20;;;;;;5029549;28;20390;-76
2022/09/18 05:48:11;;;;;;;0.00;0.00;;;10.90;72.30;;;;;;5028095;28;20030;-75
2022/09/18 05:50:37;;;;;;;0.00;0.00;;;10.80;72.30;;;;;;5028051;28;20049;-76
2022/09/18 05:53:04;;;;;;;0.00;0.00;;;10.70;72.30;;;;;;5027952;28;20021;-75
2022/09/18 05:55:31;;;;;;;0.00;0.00;;;10.70;72.30;;;;;;5029163;28;20034;-75
2022/09/18 05:57:57;;;;;;;0.00;0.00;;;10.60;72.30;;;;;;5027986;28;20101;-76
2022/09/18 06:00:25;;;;;;;0.00;0.00;;;10.60;72.30;;;;;;5029157;28;20432;-75
2022/09/18 06:03:02;;;;;;;0.00;0.00;;;10.50;72.30;;;;;;5029301;28;20071;-76
2022/09/18 06:05:30;;;;;;;0.00;0.00;;;10.50;72.30;;;;;;5027757;28;20083;-76
2022/09/18 06:07:57;;;;;;;0.00;0.00;;;10.40;72.30;;;;;;5028996;28;20029;-76
2022/09/18 06:10:24;;;;;;;0.00;0.00;;;10.40;72.30;;;;;;5028934;28;20526;-75
2022/09/18 06:12:49;;;;;;;0.00;0.00;;;10.40;72.40;;;;;;5027605;28;20469;-75
2022/09/18 06:15:16;;;;;;;0.00;0.00;;;10.40;72.40;;;;;;5011323;28;20031;-75
2022/09/18 06:17:42;;;;;;;0.00;0.00;;;10.40;72.40;;;;;;5027290;28;20095;-75
2022/09/18 06:20:08;;;;;;;0.00;0.00;;;10.30;72.40;;;;;;5028505;28;20030;-76
2022/09/18 06:22:37;;;;;;;0.00;0.00;;;10.30;72.40;;;;;;5027449;28;20393;-75
2022/09/18 06:25:04;;;;;;;0.00;0.00;;;10.30;72.50;;;;;;5028714;28;20053;-75
2022/09/18 06:27:30;;;;;;;0.00;0.00;;;10.30;72.50;;;;;;5010930;28;20034;-76
2022/09/18 06:29:55;;;;;;;0.00;0.00;;;10.40;72.50;;;;;;5028605;28;20107;-76
2022/09/18 06:32:21;;;;;;;0.00;0.00;;;10.40;72.40;;;;;;5028612;28;20029;-75
2022/09/18 06:34:47;;;;;;;0.00;0.00;;;10.40;72.40;;;;;;5028526;28;20463;-76
2022/09/18 06:37:13;;;;;;;0.00;0.00;;;10.40;72.30;;;;;;5027245;28;20037;-75
2022/09/18 06:39:39;;;;;;;0.00;0.00;;;10.40;72.30;;;;;;5027245;28;20429;-75
2022/09/18 06:42:05;;;;;;;0.00;0.00;;;10.40;72.30;;;;;;5028331;28;20029;-76
2022/09/18 06:44:31;;;;;;;0.00;0.00;;;10.40;72.30;;;;;;5028348;28;20038;-75
2022/09/18 06:46:57;;;;;;;0.00;0.00;;;10.40;72.30;;;;;;5028321;28;20078;-75
2022/09/18 06:49:23;;;;;;;0.00;0.00;;;10.40;72.30;;;;;;5026655;28;20202;-75
2022/09/18 06:51:49;;;;;;;0.00;0.00;;;10.50;72.30;;;;;;5028079;28;20498;-75
2022/09/18 06:54:15;;;;;;;0.00;0.00;;;10.50;72.30;;;;;;5026731;28;20402;-75
2022/09/18 06:56:41;;;;;;;0.00;0.00;;;10.50;72.30;;;;;;5027892;28;20037;-75
2022/09/18 06:59:07;;;;;;;0.00;0.00;;;10.50;72.30;;;;;;5028043;28;20030;-75
2022/09/18 07:01:33;;;;;;;0.00;0.00;;;10.50;72.30;;;;;;5009985;28;20087;-75
2022/09/18 07:03:58;;;;;;;0.00;0.00;;;10.60;72.30;;;;;;5027900;28;20409;-75
2022/09/18 07:06:25;;;;;;;0.00;0.00;;;10.60;72.30;;;;;;5027838;28;20111;-75
2022/09/18 07:08:52;;;;;;;0.00;0.00;;;10.60;72.30;;;;;;5026394;28;20029;-75
2022/09/18 07:11:17;;;;;;;0.00;0.00;;;10.70;72.40;;;;;;5026427;28;20021;-75
2022/09/18 07:13:44;;;;;;;0.00;0.00;;;10.70;72.40;;;;;;5010240;28;20029;-75
2022/09/18 07:16:09;;;;;;;;;;;10.70;72.40;;;;;;5026614;28;20389;-75
2022/09/18 07:18:35;;;;;;;0.00;0.00;;;10.70;72.40;;;;;;5009878;28;19967;-75
2022/09/18 07:21:01;;;;;;;0.00;0.00;;;10.80;72.40;;;;;;5027533;28;20095;-75
2022/09/18 07:23:29;;;;;;;0.00;0.00;;;10.80;72.40;;;;;;5027544;28;20537;-75
2022/09/18 07:25:58;;;;;;;0.00;0.00;;;10.90;72.40;;;;;;5026200;28;20494;-75
2022/09/18 07:28:24;;;;;;;0.00;0.00;;;10.90;72.40;;;;;;5026041;28;20135;-75
2022/09/18 07:30:50;;;;;;;0.00;0.00;;;11.00;72.50;;;;;;5009645;28;20026;-76
2022/09/18 07:33:15;;;;;;;0.00;0.00;;;11.10;72.50;;;;;;5027093;28;20038;-75
2022/09/18 07:35:41;;;;;;;0.00;0.00;;;11.10;72.50;;;;;;5027217;28;20037;-76
2022/09/18 07:38:08;;;;;;;0.00;0.00;;;11.20;72.60;;;;;;5009963;28;20462;-76
2022/09/18 07:40:34;;;;;;;0.00;0.00;;;11.40;72.80;;;;;;5027274;28;20021;-75
2022/09/18 07:43:02;;;;;;;0.00;0.00;;;11.50;73.00;;;;;;5027381;28;20026;-75
2022/09/18 07:45:28;;;;;;;0.05;0.05;;;11.90;73.40;;;;;;5025968;28;20052;-75
2022/09/18 07:47:54;;;;;;;0.13;0.10;;;12.20;73.00;;;;;;5025842;28;20510;-75
2022/09/18 07:50:20;;;;;;;0.00;0.00;;;12.40;72.50;;;;;;5026962;28;20056;-76
2022/09/18 07:52:51;;;;;;;0.00;0.00;;;12.40;72.20;;;;;;5009622;28;20036;-76
2022/09/18 07:55:19;;;;;;;0.00;0.00;;;12.50;72.30;;;;;;5027332;28;20036;-76
2022/09/18 07:57:53;;;;;;;0.00;0.00;;;12.50;72.50;;;;;;5009728;28;20021;-75
2022/09/18 08:00:18;;;;;;;0.00;0.00;;;12.60;72.50;;;;;;5026925;28;20144;-75
2022/09/18 08:02:44;;;;;;;0.00;0.00;;;12.60;72.40;;;;;;5025833;28;20493;-75
2022/09/18 08:05:10;;;;;;;0.00;0.00;;;12.60;72.40;;;;;;5025540;28;20037;-76
2022/09/18 08:07:36;;;;;;;0.00;0.00;;;12.60;72.70;;;;;;5026944;28;20118;-75
2022/09/18 08:10:03;;;;;;;0.00;0.00;;;12.70;72.80;;;;;;5025696;28;20112;-75
2022/09/18 08:12:30;;;;;;;0.00;0.00;;;12.80;72.90;;;;;;5027037;28;20033;-75
2022/09/18 08:14:57;;;;;;;0.00;0.00;;;12.90;73.00;;;;;;5027194;28;20065;-76
2022/09/18 08:17:23;;;;;;;0.00;0.00;;;13.10;73.20;;;;;;5025687;28;20470;-76
2022/09/18 08:19:48;;;;;;;0.00;0.00;;;13.80;74.80;;;;;;5009469;28;20106;-76
2022/09/18 08:22:14;;;;;;;0.00;0.00;;;15.20;76.00;;;;;;5025470;28;20479;-76
2022/09/18 08:24:40;;;;;;;0.00;0.00;;;16.90;75.90;;;;;;5026607;28;20045;-76
2022/09/18 08:27:05;;;;;;;0.00;0.00;;;18.40;75.00;;;;;;5008953;28;20079;-76
2022/09/18 08:29:31;;;;;;;0.00;0.00;;;19.60;73.90;;;;;;5024881;28;20060;-76
2022/09/18 08:31:57;;;;;;;0.00;0.00;;;20.60;73.40;;;;;;5026510;28;20030;-76
2022/09/18 08:34:23;;;;;;;0.00;0.00;;;21.60;73.20;;;;;;5026352;28;20049;-76
2022/09/18 08:36:48;;;;;;;;;;;22.40;72.90;;;;;;5009023;28;20092;-76
2022/09/18 08:39:14;;;;;;;0.00;0.00;;;23.00;72.40;;;;;;5025057;28;19975;-77
2022/09/18 08:41:46;;;;;;;0.00;0.00;;;23.50;72.10;;;;;;5026531;28;20045;-77
2022/09/18 08:44:20;;;;;;;0.00;0.00;;;23.90;72.20;;;;;;5030159;28;20469;-77
2022/09/18 08:46:55;;;;;;;0.00;0.00;;;24.20;72.10;;;;;;5028583;28;20446;-76
2022/09/18 08:49:41;;;;;;;0.00;0.00;;;24.60;72.40;;;;;;5028173;28;20091;-77
2022/09/18 08:52:16;;;;;;;0.00;0.00;;;24.90;72.10;;;;;;5029842;28;20527;-77
2022/09/18 08:55:03;;;;;;;0.00;0.00;;;25.10;72.40;;;;;;5029676;28;20366;-76
2022/09/18 08:57:34;;;;;;;;;;;25.50;72.70;;;;;;5029988;28;20029;-76
2022/09/18 09:00:07;;;;;;;0.00;0.00;;;25.80;72.50;;;;;;5029433;28;19919;-77
2022/09/18 09:02:37;;;;;;;0.00;0.00;;;26.10;72.70;;;;;;5029606;28;20029;-76
2022/09/18 09:05:13;;;;;;;0.00;0.00;;;26.30;73.00;;;;;;5029869;28;20022;-77
2022/09/18 09:08:02;;;;;;;0.00;0.00;;;26.40;72.80;;;;;;5028365;28;20053;-76
2022/09/18 09:10:43;;;;;;;0.00;0.00;;;26.70;73.00;;;;;;5029548;28;20389;-77
2022/09/18 09:13:36;;;;;;;0.00;0.00;;;26.80;72.90;;;;;;5029684;28;20033;-76
2022/09/18 09:16:17;;;;;;;0.00;0.00;;;26.90;73.10;;;;;;5029327;28;20028;-77
2022/09/18 09:18:59;;;;;;;0.00;0.00;;;27.20;73.40;;;;;;5029284;28;20328;-77
2022/09/18 09:22:15;;;;;;;0.00;0.00;;;27.30;73.00;;;;;;5027864;28;20486;-77
2022/09/18 09:25:20;;;;;;;0.00;0.00;;;27.40;73.00;;;;;;4987261;28;20403;-76
2022/09/18 09:27:55;;;;;;;0.00;0.00;;;27.50;72.70;;;;;;5029188;28;20045;-77
2022/09/18 09:30:22;;;;;;;0.00;0.00;;;27.80;73.30;;;;;;5028672;28;20017;-76
2022/09/18 09:33:16;;;;;;;0.00;0.00;;;28.20;73.60;;;;;;5027668;28;20077;-77
2022/09/18 09:35:52;;;;;;;0.00;0.00;;;28.30;73.80;;;;;;5028678;28;20073;-77
2022/09/18 09:38:47;;;;;;;0.00;0.00;;;28.70;73.90;;;;;;5027278;28;20025;-77
2022/09/18 09:41:20;;;;;;;0.00;0.00;;;29.00;74.40;;;;;;5028984;28;20053;-77
2022/09/18 09:44:07;;;;;;;0.00;0.00;;;29.40;74.10;;;;;;5027656;28;20022;-77
2022/09/18 09:46:56;;;;;;;0.00;0.00;;;29.80;74.20;;;;;;5028563;28;20083;-77
2022/09/18 09:49:27;;;;;;;0.00;0.00;;;30.30;74.10;;;;;;5026667;28;20049;-77
2022/09/18 09:52:07;;;;;;;0.03;0.03;;;30.50;73.60;;;;;;5028302;28;20076;-77
2022/09/18 09:54:33;;;;;;;0.00;0.00;;;30.50;73.40;;;;;;5026992;28;20440;-77
2022/09/18 09:57:18;;;;;;;0.00;0.00;;;30.70;73.70;;;;;;5028619;28;20037;-77
2022/09/18 10:00:04;;;;;;;0.00;0.00;;;30.70;73.60;;;;;;5028074;28;20453;-77
2022/09/18 10:02:37;;;;;;;0.00;0.00;;;30.70;73.90;;;;;;5028531;28;20485;-77
2022/09/18 10:05:15;;;;;;;0.05;0.05;;;30.80;74.20;;;;;;5028522;28;20477;-77
2022/09/18 10:08:06;;;;;;;0.00;0.00;;;30.90;74.00;;;;;;5026809;28;20064;-77
2022/09/18 10:10:39;;;;;;;0.00;0.00;;;31.10;73.80;;;;;;5028082;28;20267;-77
2022/09/18 10:13:45;;;;;;;0.00;0.00;;;31.30;73.70;;;;;;5028104;28;20104;-77
2022/09/18 10:16:29;;;;;;;0.00;0.00;;;31.40;73.60;;;;;;5015719;28;20448;-77
2022/09/18 10:18:56;;;;;;;0.00;0.00;;;31.60;73.80;;;;;;5027951;28;20025;-78
2022/09/18 10:21:26;;;;;;;0.00;0.00;;;31.80;73.90;;;;;;5026620;28;20214;-78
2022/09/18 10:23:54;;;;;;;0.00;0.00;;;31.90;73.90;;;;;;5027511;28;20068;-77
2022/09/18 10:26:28;;;;;;;0.00;0.00;;;31.80;73.80;;;;;;5027546;28;20416;-77
2022/09/18 10:28:54;;;;;;;0.00;0.00;;;31.70;73.90;;;;;;5027386;28;20021;-77
2022/09/18 10:31:20;;;;;;;0.00;0.00;;;31.80;74.30;;;;;;5026416;28;20482;-77
2022/09/18 10:33:48;;;;;;;0.00;0.00;;;32.00;74.50;;;;;;5026532;28;20386;-77
2022/09/18 10:36:33;;;;;;;0.00;0.00;;;32.10;74.20;;;;;;5027499;28;20359;-78
2022/09/18 10:38:59;;;;;;;0.00;0.00;;;32.00;74.20;;;;;;5026162;28;20027;-78
2022/09/18 10:41:34;;;;;;;0.00;0.00;;;32.00;74.30;;;;;;5027580;28;20029;-78
2022/09/18 10:44:15;;;;;;;0.00;0.00;;;32.00;74.30;;;;;;5027321;28;20396;-78
2022/09/18 10:46:53;;;;;;;0.00;0.00;;;31.90;74.40;;;;;;5026849;28;20036;-77
2022/09/18 10:49:28;;;;;;;0.00;0.00;;;31.90;75.10;;;;;;5026956;28;20394;-77
2022/09/18 10:52:21;;;;;;;0.00;0.00;;;32.20;75.10;;;;;;5027358;28;20450;-77
2022/09/18 10:55:08;;;;;;;0.00;0.00;;;32.40;75.40;;;;;;5027676;28;20082;-77
2022/09/18 10:57:57;;;;;;;0.00;0.00;;;32.90;75.40;;;;;;5027025;28;20029;-77
2022/09/18 11:00:28;;;;;;;0.00;0.00;;;33.30;75.20;;;;;;5026751;28;20044;-77
2022/09/18 11:03:16;;;;;;;0.00;0.00;;;33.50;75.20;;;;;;5026980;28;20025;-77
2022/09/18 11:06:13;;;;;;;0.00;0.00;;;33.50;75.00;;;;;;5026558;28;20026;-77
2022/09/18 11:08:49;;;;;;;0.00;0.00;;;33.60;74.80;;;;;;5025524;28;20094;-77
2022/09/18 11:11:31;;;;;;;0.00;0.00;;;33.70;74.70;;;;;;5027301;28;20092;-76
2022/09/18 11:14:07;;;;;;;0.00;0.00;;;33.80;74.80;;;;;;5026963;28;20030;-77
2022/09/18 11:16:40;;;;;;;0.00;0.00;;;33.70;74.70;;;;;;5027386;28;20105;-77
2022/09/18 11:19:09;;;;;;;0.00;0.00;;;33.90;75.10;;;;;;5027188;28;20037;-77
2022/09/18 11:21:53;;;;;;;0.00;0.00;;;34.10;75.10;;;;;;5026842;28;20470;-77
2022/09/18 11:24:33;;;;;;;0.00;0.00;;;34.30;75.60;;;;;;5026851;28;20116;-77
2022/09/18 11:27:21;;;;;;;0.00;0.00;;;34.20;74.80;;;;;;5026869;28;20022;-77
2022/09/18 11:29:47;;;;;;;0.00;0.00;;;34.20;74.90;;;;;;5024882;28;20393;-78
2022/09/18 11:32:29;;;;;;;0.00;0.00;;;34.20;74.90;;;;;;5025137;28;20036;-77
2022/09/18 11:35:01;;;;;;;0.00;0.00;;;34.20;75.00;;;;;;5027091;28;20022;-77
2022/09/18 11:37:33;;;;;;;0.00;0.00;;;34.20;75.30;;;;;;5026831;28;20021;-77
2022/09/18 11:40:13;;;;;;;0.00;0.00;;;34.30;75.20;;;;;;5026446;28;20022;-78
2022/09/18 11:42:45;;;;;;;0.00;0.00;;;34.40;75.30;;;;;;5026847;28;20025;-77
2022/09/18 11:45:35;;;;;;;0.00;0.00;;;34.30;75.00;;;;;;5026607;28;20066;-77
2022/09/18 11:48:31;;;;;;;0.00;0.00;;;34.20;74.80;;;;;;5026485;28;20099;-77
2022/09/18 11:51:01;;;;;;;0.00;0.00;;;34.10;75.10;;;;;;5026271;28;20118;-77
2022/09/18 11:53:31;;;;;;;0.00;0.00;;;33.60;74.70;;;;;;5026713;28;20024;-77
2022/09/18 11:56:00;;;;;;;0.00;0.00;;;33.40;75.30;;;;;;5026418;28;20455;-78
2022/09/18 11:58:40;;;;;;;0.00;0.00;;;33.50;75.60;;;;;;5024765;28;20522;-77
2022/09/18 12:01:52;;;;;;;0.10;0.00;;;33.50;75.40;;;;;;5026203;28;20025;-77
2022/09/18 12:04:47;;;;;;;0.00;0.00;;;33.50;75.30;;;;;;5025389;28;20036;-77
2022/09/18 12:07:34;;;;;;;0.00;0.00;;;33.70;75.40;;;;;;5026143;28;20022;-77
2022/09/18 12:10:30;;;;;;;0.00;0.00;;;33.40;75.10;;;;;;5025956;28;20110;-77
2022/09/18 12:13:33;;;;;;;0.00;0.00;;;33.30;75.60;;;;;;5026204;28;20106;-77
2022/09/18 12:16:16;;;;;;;0.00;0.00;;;33.40;75.60;;;;;;5026592;28;20344;-77
2022/09/18 12:18:59;;;;;;;0.00;0.00;;;33.30;75.00;;;;;;5028774;28;20025;-77
2022/09/18 12:21:45;;;;;;;0.00;0.00;;;33.20;74.40;;;;;;5030322;28;20057;-77
2022/09/18 12:24:14;;;;;;;0.00;0.00;;;32.40;73.50;;;;;;5030242;28;20100;-76
2022/09/18 12:26:52;;;;;;;0.00;0.00;;;31.50;73.70;;;;;;5029731;28;20084;-77
2022/09/18 12:29:32;;;;;;;0.00;0.00;;;31.10;74.60;;;;;;5028628;28;20028;-77
2022/09/18 12:32:15;;;;;;;0.00;0.00;;;31.00;74.90;;;;;;5030078;28;20026;-77
2022/09/18 12:35:00;;;;;;;0.00;0.00;;;31.20;75.20;;;;;;5029935;28;20025;-76
2022/09/18 12:37:25;;;;;;;0.00;0.00;;;31.20;74.70;;;;;;5029906;28;20064;-77
2022/09/18 12:40:01;;;;;;;0.00;0.00;;;31.30;74.80;;;;;;5028200;28;20060;-76
2022/09/18 12:42:42;;;;;;;;;;;31.30;75.10;;;;;;5030127;28;20030;-77
2022/09/18 12:45:26;;;;;;;0.00;0.00;;;31.50;75.50;;;;;;5029317;28;19935;-77
2022/09/18 12:48:15;;;;;;;0.00;0.00;;;31.60;75.40;;;;;;5028964;28;20046;-76
2022/09/18 12:50:59;;;;;;;0.00;0.00;;;31.60;75.30;;;;;;5027212;28;20067;-77
2022/09/18 12:53:43;;;;;;;0.00;0.00;;;31.50;75.10;;;;;;5029679;28;20036;-77
2022/09/18 12:56:18;;;;;;;0.00;0.00;;;31.40;75.00;;;;;;5029395;28;20405;-77
2022/09/18 12:59:15;;;;;;;0.00;0.00;;;31.50;75.30;;;;;;5029365;28;20076;-77
2022/09/18 13:02:12;;;;;;;0.00;0.00;;;31.60;75.20;;;;;;5030368;28;20079;-76
2022/09/18 13:04:54;;;;;;;0.00;0.00;;;31.40;74.60;;;;;;5012527;28;20046;-77
2022/09/18 13:07:26;;;;;;;0.00;0.00;;;31.00;74.40;;;;;;5028981;28;20025;-76
2022/09/18 13:10:05;;;;;;;0.00;0.00;;;30.40;74.00;;;;;;5027673;28;20041;-77
2022/09/18 13:12:41;;;;;;;0.00;0.00;;;30.00;73.90;;;;;;5029062;28;20024;-77
2022/09/18 13:15:25;;;;;;;0.00;0.00;;;29.40;73.50;;;;;;5029600;28;20025;-76
2022/09/18 13:18:02;;;;;;;0.00;0.00;;;28.70;73.20;;;;;;5028624;28;20029;-76
2022/09/18 13:20:41;;;;;;;0.00;0.00;;;28.20;73.20;;;;;;5027687;28;20106;-76